Time;durP1;ratioP1;P1;durP2;ratioP2;P2;SDS_P1;SDS_P2;PMS_P1;PMS_P2;Temp;Humidity;BMP_temperature;BMP_pressure;BME280_temperature;BME280_humidity;BME280_pressure;Samples;Min_cycle;Max_cycle;Signal;HPM_P1;HPM_P2
2023/02/12 00:00:22;;;;;;;9.70;5.00;;;;;;;3.05;87.79;101422.71;135087;1254;107619;-78
2023/02/12 00:03:48;;;;;;;14.80;7.70;;;;;;;3.04;87.42;101422.95;135010;1254;107566;-78
2023/02/12 00:06:54;;;;;;;6.40;3.60;;;;;;;3.04;87.77;101422.79;135111;1254;107378;-77
2023/02/12 00:09:59;;;;;;;15.00;7.40;;;;;;;3.05;87.74;101424.48;135044;1254;107565;-78
2023/02/12 00:13:05;;;;;;;12.50;5.60;;;;;;;3.03;87.59;101430.39;135051;1254;107574;-78
2023/02/12 00:16:13;;;;;;;17.30;8.20;;;;;;;3.02;86.90;101444.34;135026;1254;106709;-77
2023/02/12 00:19:19;;;;;;;14.10;5.50;;;;;;;3.00;87.61;101446.52;135042;1254;108220;-78
2023/02/12 00:22:25;;;;;;;17.30;7.70;;;;;;;3.05;87.87;101445.91;135041;1254;107581;-78
2023/02/12 00:25:30;;;;;;;7.10;3.90;;;;;;;3.12;87.49;101452.27;135085;1254;107525;-77
2023/02/12 00:28:36;;;;;;;5.80;2.90;;;;;;;3.14;85.77;101452.70;135085;1254;108565;-78
2023/02/12 00:31:42;;;;;;;5.70;2.80;;;;;;;3.09;84.40;101456.65;135075;1254;107533;-78
2023/02/12 00:34:48;;;;;;;24.90;18.40;;;;;;;3.02;84.39;101463.64;135070;1255;107237;-78
2023/02/12 00:37:54;;;;;;;5.70;4.10;;;;;;;3.01;83.99;101472.70;135103;1254;107376;-78
2023/02/12 00:41:00;;;;;;;4.80;3.20;;;;;;;2.98;84.33;101483.58;135066;1254;107540;-78
2023/02/12 00:44:06;;;;;;;5.60;3.50;;;;;;;2.90;81.63;101493.09;135071;1254;108651;-78
2023/02/12 00:47:15;;;;;;;10.60;7.90;;;;;;;2.81;83.21;101507.02;135109;1254;106303;-78
2023/02/12 00:50:21;;;;;;;8.10;5.40;;;;;;;2.76;83.74;101518.84;135039;1254;107507;-78
2023/02/12 00:53:27;;;;;;;6.10;3.60;;;;;;;2.69;82.22;101518.46;135005;1254;107495;-78
2023/02/12 00:56:33;;;;;;;5.90;4.00;;;;;;;2.62;82.89;101523.34;135062;1254;108106;-78
2023/02/12 00:59:41;;;;;;;6.40;4.50;;;;;;;2.57;82.93;101528.35;135065;1254;108693;-78
2023/02/12 01:02:46;;;;;;;4.70;2.20;;;;;;;2.54;83.18;101544.44;134988;1254;108694;-78
2023/02/12 01:05:52;;;;;;;6.40;4.00;;;;;;;2.56;83.30;101546.27;135084;1254;107348;-78
2023/02/12 01:09:00;;;;;;;7.80;5.40;;;;;;;2.61;83.32;101553.10;135062;1254;107505;-78
2023/02/12 01:12:07;;;;;;;6.70;5.00;;;;;;;2.61;82.57;101556.09;135105;1254;107504;-78
2023/02/12 01:15:13;;;;;;;3.40;2.00;;;;;;;2.58;81.97;101561.66;135105;1254;107541;-78
2023/02/12 01:18:18;;;;;;;4.90;2.90;;;;;;;2.56;81.89;101562.27;135085;1254;107246;-78
2023/02/12 01:21:27;;;;;;;6.40;2.90;;;;;;;2.50;80.48;101568.69;135081;1254;106931;-78
2023/02/12 01:24:33;;;;;;;2.80;2.10;;;;;;;2.42;80.86;101575.21;135070;1254;107479;-78
2023/02/12 01:27:39;;;;;;;3.80;2.10;;;;;;;2.35;81.02;101573.41;134999;1254;107496;-78
2023/02/12 01:30:44;;;;;;;4.80;3.20;;;;;;;2.32;81.93;101578.81;135073;1254;107350;-77
2023/02/12 01:33:52;;;;;;;2.80;1.70;;;;;;;2.27;81.41;101587.42;135090;1254;108659;-78
2023/02/12 01:36:58;;;;;;;5.30;1.60;;;;;;;2.22;80.69;101597.16;134939;1254;107476;-78
2023/02/12 01:40:04;;;;;;;3.30;1.90;;;;;;;2.19;81.00;101587.27;134987;1254;108695;-78
2023/02/12 01:43:12;;;;;;;2.80;1.60;;;;;;;2.21;80.59;101589.45;135049;1254;107434;-79
2023/02/12 01:46:18;;;;;;;3.20;1.40;;;;;;;2.24;81.23;101596.69;135051;1254;107536;-78
2023/02/12 01:49:27;;;;;;;2.80;1.70;;;;;;;2.33;81.34;101600.17;135113;1254;106900;-78
2023/02/12 01:52:38;;;;;;;2.90;1.90;;;;;;;2.41;82.10;101600.73;135079;1254;107496;-78
2023/02/12 01:55:44;;;;;;;2.90;2.10;;;;;;;2.47;80.79;101610.96;135124;1254;107667;-78
2023/02/12 01:58:51;;;;;;;4.40;3.20;;;;;;;2.45;81.00;101609.16;134980;1254;107678;-78
2023/02/12 02:01:57;;;;;;;2.80;1.70;;;;;;;2.39;80.36;101608.53;135083;1254;107534;-78
2023/02/12 02:05:05;;;;;;;2.90;1.80;;;;;;;2.33;79.55;101619.63;135097;1254;106917;-78
2023/02/12 02:08:11;;;;;;;3.30;1.60;;;;;;;2.25;80.18;101630.20;135064;1254;107511;-78
2023/02/12 02:14:41;;;;;;;4.90;2.70;;;;;;;2.10;80.91;101633.46;135078;1254;107489;-78
2023/02/12 02:17:56;;;;;;;4.40;2.10;;;;;;;2.07;80.16;101641.15;135084;1254;107349;-78
2023/02/12 02:21:32;;;;;;;3.70;2.10;;;;;;;1.96;79.75;101640.37;135039;1254;108467;-78
2023/02/12 02:24:56;;;;;;;3.50;2.00;;;;;;;1.97;79.91;101656.13;135021;1254;105475;-78
2023/02/12 02:28:13;;;;;;;3.20;2.00;;;;;;;2.03;81.06;101646.41;135073;1254;107546;-78
2023/02/12 02:31:26;;;;;;;3.80;2.10;;;;;;;2.08;79.64;101654.79;135055;1254;107512;-78
2023/02/12 02:34:50;;;;;;;4.40;2.50;;;;;;;1.98;79.15;101665.38;135051;1254;108620;-78
2023/02/12 02:38:07;;;;;;;3.60;1.90;;;;;;;1.86;78.85;101670.07;135093;1254;107559;-78
2023/02/12 02:41:21;;;;;;;3.40;2.20;;;;;;;1.83;79.67;101671.98;135080;1254;107533;-78
2023/02/12 02:44:33;;;;;;;3.70;1.80;;;;;;;1.81;79.95;101680.66;135092;1254;107506;-78
2023/02/12 02:47:43;;;;;;;3.20;1.80;;;;;;;1.80;79.64;101686.80;135140;1254;107461;-78
2023/02/12 02:50:52;;;;;;;3.70;2.00;;;;;;;1.78;79.44;101696.89;135058;1254;107630;-78
2023/02/12 02:54:02;;;;;;;3.90;2.00;;;;;;;1.71;79.40;101701.22;135062;1254;107261;-78
2023/02/12 02:57:15;;;;;;;4.10;1.90;;;;;;;1.69;79.41;101706.19;135050;1254;107450;-78
2023/02/12 03:00:22;;;;;;;2.50;1.30;;;;;;;1.69;78.36;101716.73;135104;1254;107480;-78
2023/02/12 03:03:32;;;;;;;3.00;1.60;;;;;;;1.74;78.49;101722.85;134916;1254;108680;-78
2023/02/12 03:06:44;;;;;;;2.80;1.70;;;;;;;1.78;78.90;101730.94;135032;1254;107471;-78
2023/02/12 03:09:54;;;;;;;3.00;1.60;;;;;;;1.81;78.95;101735.02;135078;1254;105936;-78
2023/02/12 03:13:06;;;;;;;3.00;1.80;;;;;;;1.86;78.84;101745.89;135094;1254;107278;-78
2023/02/12 03:16:18;;;;;;;2.90;1.60;;;;;;;1.79;77.47;101753.35;135134;1254;107347;-78
2023/02/12 03:19:29;;;;;;;2.30;1.50;;;;;;;1.74;78.32;101760.02;135116;1254;107360;-78
2023/02/12 03:22:38;;;;;;;3.10;1.70;;;;;;;1.71;78.32;101763.84;135070;1254;107564;-78
2023/02/12 03:25:52;;;;;;;3.40;1.80;;;;;;;1.65;77.89;101759.69;135113;1254;107534;-78
2023/02/12 03:28:58;;;;;;;5.50;2.10;;;;;;;1.62;78.81;101770.67;135059;1254;107561;-78
2023/02/12 03:32:19;;;;;;;4.60;1.90;;;;;;;1.60;78.48;101774.44;135140;1254;107538;-78
2023/02/12 03:35:31;;;;;;;4.50;1.90;;;;;;;1.50;78.28;101774.80;135050;1254;108247;-78
2023/02/12 03:38:41;;;;;;;3.30;1.60;;;;;;;1.45;77.77;101780.23;134974;1254;105485;-77
2023/02/12 03:41:50;;;;;;;4.20;2.00;;;;;;;1.44;78.21;101789.04;135103;1254;107541;-77
2023/02/12 03:44:59;;;;;;;4.30;1.80;;;;;;;1.47;78.38;101788.58;135076;1254;107939;-78
2023/02/12 03:48:13;;;;;;;6.20;2.20;;;;;;;1.53;78.54;101794.16;135138;1254;108619;-78
2023/02/12 03:51:23;;;;;;;5.90;2.10;;;;;;;1.61;78.24;101805.44;135117;1254;107489;-78
2023/02/12 03:54:29;;;;;;;3.40;1.90;;;;;;;1.62;78.09;101809.08;135092;1254;107595;-78
2023/02/12 03:57:41;;;;;;;3.40;1.50;;;;;;;1.61;77.77;101813.15;135087;1254;107306;-78
2023/02/12 04:00:46;;;;;;;10.40;7.80;;;;;;;1.63;78.44;101819.21;135110;1254;107636;-78
2023/02/12 04:03:52;;;;;;;2.70;2.00;;;;;;;1.66;78.23;101816.65;135062;1254;107526;-78
2023/02/12 04:06:58;;;;;;;5.00;3.60;;;;;;;1.66;78.00;101832.78;135089;1254;107546;-78
2023/02/12 04:10:04;;;;;;;4.30;2.50;;;;;;;1.70;78.11;101841.24;135047;1254;107383;-78
2023/02/12 04:13:18;;;;;;;5.50;3.70;;;;;;;1.69;77.72;101843.39;135092;1254;106572;-78
2023/02/12 04:16:34;;;;;;;17.20;13.10;;;;;;;1.69;78.19;101847.05;135065;1254;107538;-78
2023/02/12 04:19:53;;;;;;;7.30;4.00;;;;;;;1.74;77.83;101849.85;135108;1254;107483;-78
2023/02/12 04:23:11;;;;;;;4.50;2.10;;;;;;;1.73;77.59;101853.75;135084;1254;108393;-78
2023/02/12 04:26:26;;;;;;;3.80;2.20;;;;;;;1.71;77.12;101854.20;135075;1254;108705;-78
2023/02/12 04:29:40;;;;;;;3.20;2.10;;;;;;;1.66;77.37;101861.37;135088;1254;108573;-78
2023/02/12 04:32:50;;;;;;;3.80;2.40;;;;;;;1.68;78.15;101867.79;135066;1254;107287;-78
2023/02/12 04:36:02;;;;;;;5.50;2.80;;;;;;;1.69;77.48;101874.23;135046;1254;107523;-78
2023/02/12 04:39:12;;;;;;;4.10;2.10;;;;;;;1.71;78.12;101880.48;135075;1254;107704;-78
2023/02/12 04:42:17;;;;;;;4.30;2.40;;;;;;;1.78;77.36;101883.58;135057;1254;108714;-78
2023/02/12 04:45:26;;;;;;;5.10;2.20;;;;;;;1.85;77.68;101888.59;135106;1254;107550;-78
2023/02/12 04:48:33;;;;;;;6.50;2.90;;;;;;;1.88;77.49;101885.30;135131;1254;107463;-78
2023/02/12 04:51:39;;;;;;;9.50;4.80;;;;;;;1.87;77.38;101888.14;135059;1254;107561;-78
2023/02/12 04:54:44;;;;;;;9.60;4.60;;;;;;;1.91;78.06;101884.16;135096;1254;107485;-78
2023/02/12 04:57:50;;;;;;;5.60;3.30;;;;;;;1.96;77.92;101887.30;135062;1254;108696;-78
2023/02/12 05:00:58;;;;;;;5.90;2.90;;;;;;;1.99;77.67;101881.73;135088;1254;107726;-78
2023/02/12 05:04:05;;;;;;;2.80;1.90;;;;;;;2.04;78.07;101881.73;135084;1254;107254;-78
2023/02/12 05:07:12;;;;;;;3.20;1.90;;;;;;;2.02;77.34;101882.53;135056;1254;107649;-78
2023/02/12 05:10:18;;;;;;;6.30;3.90;;;;;;;1.94;76.80;101890.19;135082;1254;107548;-78
2023/02/12 05:13:23;;;;;;;5.80;3.20;;;;;;;1.87;77.25;101899.71;135088;1254;107592;-77
2023/02/12 05:16:29;;;;;;;7.60;4.10;;;;;;;1.80;76.88;101905.79;135076;1254;107535;-78
2023/02/12 05:19:34;;;;;;;7.10;4.00;;;;;;;1.73;76.70;101905.33;135153;1254;107393;-78
2023/02/12 05:22:40;;;;;;;6.90;3.90;;;;;;;1.68;76.97;101908.14;135091;1254;107382;-77
2023/02/12 05:25:46;;;;;;;4.20;2.50;;;;;;;1.63;76.67;101911.46;135117;1254;106793;-78
2023/02/12 05:28:51;;;;;;;4.50;2.60;;;;;;;1.64;77.69;101910.40;135060;1254;107367;-78
2023/02/12 05:31:57;;;;;;;5.00;3.20;;;;;;;1.71;77.47;101913.83;135044;1254;107536;-78
2023/02/12 05:35:02;;;;;;;7.70;4.40;;;;;;;1.78;77.91;101917.42;135090;1254;108787;-79
2023/02/12 05:38:08;;;;;;;5.20;2.90;;;;;;;1.90;77.57;101911.89;135039;1254;106218;-78
2023/02/12 05:41:15;;;;;;;4.20;2.50;;;;;;;1.99;77.49;101915.10;135107;1254;108187;-78
2023/02/12 05:44:21;;;;;;;7.70;4.20;;;;;;;2.03;77.66;101923.54;135090;1254;108129;-78
2023/02/12 05:47:26;;;;;;;5.50;3.00;;;;;;;2.11;77.83;101926.23;135076;1254;107352;-78
2023/02/12 05:50:32;;;;;;;6.20;3.50;;;;;;;2.21;77.50;101933.06;135061;1254;107527;-77
2023/02/12 05:53:39;;;;;;;5.90;3.20;;;;;;;2.26;77.55;101937.97;135117;1254;108575;-78
2023/02/12 05:56:46;;;;;;;4.40;2.70;;;;;;;2.27;77.03;101946.54;135085;1254;107052;-78
2023/02/12 05:59:52;;;;;;;5.60;2.50;;;;;;;2.23;77.01;101951.94;135103;1254;108962;-78
2023/02/12 06:02:58;;;;;;;3.50;2.30;;;;;;;2.17;77.10;101955.31;135079;1254;105923;-78
2023/02/12 06:06:03;;;;;;;6.30;4.10;;;;;;;2.09;76.60;101968.26;135065;1254;108592;-78
2023/02/12 06:09:10;;;;;;;5.80;3.60;;;;;;;2.01;77.22;101973.48;135104;1254;107301;-78
2023/02/12 06:12:17;;;;;;;5.50;3.30;;;;;;;2.00;77.44;101979.84;135104;1254;106662;-78
2023/02/12 06:15:22;;;;;;;7.20;3.50;;;;;;;2.05;77.47;101989.30;135106;1254;107756;-78
2023/02/12 06:18:28;;;;;;;10.20;5.00;;;;;;;2.09;77.54;102001.95;135080;1254;108712;-78
2023/02/12 06:21:34;;;;;;;10.50;5.30;;;;;;;2.09;77.23;102000.37;135065;1254;107403;-78
2023/02/12 06:24:40;;;;;;;8.20;4.60;;;;;;;2.08;77.57;102006.23;135066;1254;108126;-78
2023/02/12 06:27:45;;;;;;;13.20;5.90;;;;;;;2.15;77.51;102013.67;135087;1254;107522;-78
2023/02/12 06:30:51;;;;;;;7.60;3.90;;;;;;;2.20;77.42;102013.49;135128;1254;107243;-78
2023/02/12 06:33:58;;;;;;;8.00;4.00;;;;;;;2.28;77.42;102013.56;135072;1254;109253;-77
2023/02/12 06:37:04;;;;;;;9.40;5.00;;;;;;;2.37;76.90;102020.77;135067;1254;107558;-78
2023/02/12 06:40:10;;;;;;;10.50;6.20;;;;;;;2.34;77.08;102032.64;135120;1254;107498;-78
2023/02/12 06:43:16;;;;;;;11.60;6.70;;;;;;;2.32;76.80;102039.75;135097;1254;107542;-78
2023/02/12 06:46:21;;;;;;;11.40;5.80;;;;;;;2.31;77.33;102037.16;135094;1254;106551;-78
2023/02/12 06:49:27;;;;;;;10.00;5.60;;;;;;;2.36;77.44;102039.77;135087;1254;107557;-78
2023/02/12 06:52:33;;;;;;;6.80;3.90;;;;;;;2.41;76.45;102042.79;135123;1254;107483;-78
2023/02/12 06:55:38;;;;;;;8.10;4.50;;;;;;;2.45;77.02;102042.79;135086;1254;107568;-78
2023/02/12 06:58:45;;;;;;;8.50;5.30;;;;;;;2.50;76.78;102043.52;135121;1254;107552;-78
2023/02/12 07:01:51;;;;;;;24.10;14.30;;;;;;;2.48;76.80;102047.95;135100;1254;107549;-78
2023/02/12 07:04:56;;;;;;;21.30;12.90;;;;;;;2.46;76.93;102052.44;135089;1254;107482;-78
2023/02/12 07:08:02;;;;;;;17.60;11.40;;;;;;;2.44;76.84;102051.98;135072;1254;107550;-78
2023/02/12 07:11:08;;;;;;;18.10;8.60;;;;;;;2.45;77.13;102055.61;135103;1254;107946;-78
2023/02/12 07:14:16;;;;;;;12.30;7.10;;;;;;;2.48;76.76;102050.23;135062;1255;107486;-78
2023/02/12 07:17:22;;;;;;;13.30;7.40;;;;;;;2.45;77.13;102056.86;135089;1254;107237;-78
2023/02/12 07:20:27;;;;;;;10.70;6.30;;;;;;;2.43;76.40;102062.89;135094;1254;106694;-78
2023/02/12 07:23:33;;;;;;;6.60;3.60;;;;;;;2.41;76.09;102068.95;135065;1254;106265;-78
2023/02/12 07:26:38;;;;;;;8.00;4.00;;;;;;;2.44;76.10;102081.64;135176;1254;106987;-77
2023/02/12 07:29:44;;;;;;;8.70;4.60;;;;;;;2.37;75.78;102092.42;135066;1254;107330;-79
2023/02/12 07:32:49;;;;;;;9.10;4.30;;;;;;;2.26;76.32;102090.38;135050;1254;107654;-77
2023/02/12 07:35:55;;;;;;;5.80;3.10;;;;;;;2.29;77.02;102085.33;135066;1254;107548;-77
2023/02/12 07:39:01;;;;;;;6.20;3.50;;;;;;;2.46;77.35;102091.39;135115;1254;108682;-78
2023/02/12 07:42:07;;;;;;;19.90;9.80;;;;;;;2.66;77.16;102092.27;135089;1254;107862;-77
2023/02/12 07:45:13;;;;;;;7.20;3.80;;;;;;;2.80;76.57;102098.27;135073;1254;107539;-78
2023/02/12 07:48:18;;;;;;;12.40;6.20;;;;;;;2.83;76.15;102103.23;135080;1254;107606;-78
2023/02/12 07:51:25;;;;;;;49.10;29.10;;;;;;;2.79;76.01;102102.67;135050;1255;109233;-78
2023/02/12 07:54:30;;;;;;;14.00;7.30;;;;;;;2.75;76.26;102106.34;135111;1254;107438;-78
2023/02/12 07:57:37;;;;;;;13.10;8.50;;;;;;;2.69;76.52;102111.63;135108;1254;108696;-78
2023/02/12 08:00:42;;;;;;;20.90;14.20;;;;;;;2.67;76.82;102117.16;135132;1254;108669;-78
2023/02/12 08:03:50;;;;;;;13.90;9.00;;;;;;;2.62;76.30;102114.73;135078;1254;107627;-78
2023/02/12 08:06:56;;;;;;;13.80;8.80;;;;;;;2.54;76.74;102114.98;135102;1254;107617;-78
2023/02/12 08:10:02;;;;;;;12.40;6.50;;;;;;;2.50;76.68;102113.40;135131;1254;107486;-78
2023/02/12 08:13:07;;;;;;;13.40;7.60;;;;;;;2.53;76.95;102114.36;135091;1254;107553;-77
2023/02/12 08:16:14;;;;;;;18.00;11.80;;;;;;;2.53;76.07;102115.92;135098;1254;107577;-78
2023/02/12 08:19:21;;;;;;;7.70;4.80;;;;;;;2.53;76.49;102116.45;135058;1254;106270;-78
2023/02/12 08:22:27;;;;;;;11.50;6.20;;;;;;;2.61;76.77;102113.52;135013;1254;108759;-78
2023/02/12 08:25:32;;;;;;;16.90;7.80;;;;;;;2.73;76.64;102119.23;135035;1254;107449;-77
2023/02/12 08:28:39;;;;;;;29.10;10.70;;;;;;;2.91;76.57;102116.46;135042;1254;107543;-78
2023/02/12 08:31:46;;;;;;;9.90;5.70;;;;;;;3.03;75.81;102117.41;135101;1254;107632;-78
2023/02/12 08:34:51;;;;;;;31.70;12.80;;;;;;;3.06;75.64;102119.92;135060;1254;107727;-78
2023/02/12 08:37:57;;;;;;;64.20;22.50;;;;;;;3.16;75.33;102124.31;135068;1254;106682;-78
2023/02/12 08:41:07;;;;;;;22.70;8.10;;;;;;;3.27;75.80;102124.23;134993;1254;107608;-78
2023/02/12 08:44:13;;;;;;;17.20;10.90;;;;;;;3.42;74.22;102116.95;134937;1254;107916;-77
2023/02/12 08:47:18;;;;;;;4.90;3.10;;;;;;;3.43;74.00;102119.39;134950;1254;106417;-78
2023/02/12 08:50:24;;;;;;;4.20;2.80;;;;;;;3.36;71.64;102122.11;135066;1254;109291;-78
2023/02/12 08:53:29;;;;;;;5.90;3.20;;;;;;;3.34;74.16;102122.02;135063;1254;107571;-78
2023/02/12 08:56:36;;;;;;;7.60;5.30;;;;;;;3.48;74.11;102119.72;135091;1254;109277;-78
2023/02/12 08:59:41;;;;;;;6.40;4.50;;;;;;;3.61;74.07;102116.39;135087;1254;107460;-78
2023/02/12 09:02:49;;;;;;;15.00;8.80;;;;;;;3.67;71.54;102119.31;135118;1254;107257;-78
2023/02/12 09:05:55;;;;;;;82.30;24.20;;;;;;;3.51;72.67;102122.56;135043;1254;106400;-78
2023/02/12 09:09:01;;;;;;;23.70;8.80;;;;;;;3.59;74.30;102123.69;135070;1254;106809;-78
2023/02/12 09:12:07;;;;;;;8.30;4.60;;;;;;;3.78;74.33;102126.41;135079;1254;107551;-78
2023/02/12 09:15:12;;;;;;;7.30;3.90;;;;;;;3.88;73.02;102132.52;135106;1254;108029;-78
2023/02/12 09:18:18;;;;;;;195.50;55.30;;;;;;;3.85;73.24;102137.74;135075;1254;108120;-79
2023/02/12 09:21:24;;;;;;;496.00;217.70;;;;;;;3.94;73.89;102139.50;135080;1254;106442;-78
2023/02/12 09:24:29;;;;;;;1251.20;498.00;;;;;;;4.04;73.42;102144.39;135122;1254;108766;-78
2023/02/12 09:27:35;;;;;;;923.40;320.70;;;;;;;4.10;73.38;102149.38;135063;1254;107536;-78
2023/02/12 09:30:41;;;;;;;775.60;278.80;;;;;;;4.23;73.60;102154.81;135115;1254;106631;-78
2023/02/12 09:33:46;;;;;;;677.10;237.70;;;;;;;4.35;72.71;102164.89;135038;1254;107542;-78
2023/02/12 09:36:52;;;;;;;805.30;290.20;;;;;;;4.39;73.46;102165.41;135057;1254;107184;-78
2023/02/12 09:39:57;;;;;;;379.50;121.90;;;;;;;4.51;73.18;102165.44;135076;1254;107518;-78
2023/02/12 09:43:17;;;;;;;141.00;42.40;;;;;;;4.57;72.97;102169.57;135094;1254;107447;-78
2023/02/12 09:46:30;;;;;;;67.00;25.60;;;;;;;4.59;71.56;102169.64;135091;1254;107765;-78
2023/02/12 09:49:54;;;;;;;43.40;19.70;;;;;;;4.37;71.18;102177.66;135087;1254;107287;-78
2023/02/12 09:53:00;;;;;;;31.60;15.00;;;;;;;4.13;70.31;102177.45;135124;1254;107537;-78
2023/02/12 09:56:11;;;;;;;18.90;10.50;;;;;;;3.96;71.33;102182.90;135043;1254;107488;-78
2023/02/12 09:59:28;;;;;;;38.60;22.00;;;;;;;3.91;69.71;102180.64;135057;1254;107504;-78
2023/02/12 10:02:37;;;;;;;47.90;31.60;;;;;;;3.89;71.58;102179.13;135084;1254;107626;-78
2023/02/12 10:05:49;;;;;;;28.50;18.60;;;;;;;4.16;72.34;102178.73;135043;1254;108658;-78
2023/02/12 10:09:28;;;;;;;13.70;8.80;;;;;;;4.42;71.75;102174.65;135082;1254;106706;-79
2023/02/12 10:12:39;;;;;;;21.10;15.30;;;;;;;4.44;69.74;102176.83;135039;1254;107390;-78
2023/02/12 10:15:52;;;;;;;19.60;10.20;;;;;;;4.50;70.23;102176.74;135089;1254;107362;-78
2023/02/12 10:19:14;;;;;;;8.40;4.80;;;;;;;4.49;68.31;102173.47;135054;1254;107536;-78
2023/02/12 10:22:29;;;;;;;6.40;3.60;;;;;;;4.39;70.25;102174.05;135034;1254;107496;-78
2023/02/12 10:25:44;;;;;;;12.50;8.70;;;;;;;4.51;70.94;102178.48;135120;1254;107525;-79
2023/02/12 10:28:51;;;;;;;25.10;11.20;;;;;;;4.81;71.44;102175.05;135068;1254;107615;-78
2023/02/12 10:32:00;;;;;;;33.60;19.70;;;;;;;5.06;71.24;102169.13;135111;1254;109269;-78
2023/02/12 10:35:15;;;;;;;12.60;8.30;;;;;;;5.20;68.45;102171.70;135064;1254;107539;-78
2023/02/12 10:38:26;;;;;;;8.70;6.10;;;;;;;5.10;69.67;102163.69;135076;1254;107537;-78
2023/02/12 10:41:35;;;;;;;6.40;5.30;;;;;;;5.05;68.70;102169.20;135046;1254;108726;-78
2023/02/12 10:44:41;;;;;;;6.80;4.70;;;;;;;4.84;66.55;102163.09;135084;1255;107326;-78
2023/02/12 10:47:49;;;;;;;10.40;6.80;;;;;;;4.53;66.72;102161.48;135110;1254;107460;-78
2023/02/12 10:51:03;;;;;;;7.00;4.30;;;;;;;4.30;67.57;102164.38;135117;1254;107549;-78
2023/02/12 10:54:34;;;;;;;19.60;9.90;;;;;;;4.24;67.22;102172.95;135081;1254;109013;-78
2023/02/12 10:57:40;;;;;;;8.90;4.90;;;;;;;4.02;67.80;102171.02;135076;1254;107591;-78
2023/02/12 11:00:46;;;;;;;22.90;12.80;;;;;;;4.02;69.53;102164.86;135121;1254;107483;-78
2023/02/12 11:03:52;;;;;;;27.10;11.40;;;;;;;4.13;69.86;102156.66;135071;1254;107575;-78
2023/02/12 11:07:03;;;;;;;12.50;6.50;;;;;;;4.19;68.50;102161.17;135098;1254;107507;-78
2023/02/12 11:10:25;;;;;;;19.20;10.60;;;;;;;4.10;68.85;102155.55;135124;1254;107561;-79
2023/02/12 11:13:31;;;;;;;519.10;212.50;;;;;;;4.19;69.82;102154.63;135101;1254;107425;-78
2023/02/12 11:16:43;;;;;;;129.80;41.10;;;;;;;4.31;69.81;102153.61;134937;1256;107544;-78
2023/02/12 11:20:04;;;;;;;177.90;58.80;;;;;;;4.37;69.01;102152.11;135044;1254;107245;-78
2023/02/12 11:23:28;;;;;;;36.50;12.30;;;;;;;4.41;68.95;102145.92;135085;1255;107361;-78
2023/02/12 11:26:33;;;;;;;17.50;7.40;;;;;;;4.44;68.72;102143.89;135072;1254;107662;-78
2023/02/12 11:29:39;;;;;;;145.90;54.60;;;;;;;4.46;68.82;102139.01;135021;1256;107579;-79
2023/02/12 11:32:45;;;;;;;25.20;12.80;;;;;;;4.50;67.79;102142.55;135049;1254;107632;-78
2023/02/12 11:35:56;;;;;;;18.10;10.50;;;;;;;4.29;65.66;102150.34;135094;1254;107276;-78
2023/02/12 11:39:02;;;;;;;11.40;7.00;;;;;;;4.07;66.42;102143.16;135081;1254;107324;-78
2023/02/12 11:42:18;;;;;;;34.60;22.80;;;;;;;4.00;67.40;102144.70;135042;1254;107447;-78
2023/02/12 11:45:30;;;;;;;38.30;25.80;;;;;;;4.09;68.62;102149.25;135082;1254;107533;-79
2023/02/12 11:48:39;;;;;;;23.50;14.40;;;;;;;4.28;68.97;102150.39;135101;1254;107519;-78
2023/02/12 11:51:49;;;;;;;12.20;8.10;;;;;;;4.47;68.80;102151.66;135102;1254;107594;-78
2023/02/12 11:54:57;;;;;;;15.80;10.90;;;;;;;4.61;68.56;102152.13;135080;1254;107381;-78
2023/02/12 11:58:13;;;;;;;20.50;11.80;;;;;;;4.61;65.97;102149.65;135076;1255;107097;-78
2023/02/12 12:01:23;;;;;;;18.50;11.30;;;;;;;4.51;66.48;102150.60;135059;1255;107532;-78
2023/02/12 12:04:31;;;;;;;12.60;7.30;;;;;;;4.50;67.50;102149.27;135058;1254;107565;-79
2023/02/12 12:07:39;;;;;;;11.90;8.00;;;;;;;4.55;67.56;102142.35;135047;1254;107366;-79
2023/02/12 12:10:51;;;;;;;10.20;7.20;;;;;;;4.68;68.48;102132.24;135048;1254;107537;-79
2023/02/12 12:14:02;;;;;;;9.10;6.10;;;;;;;4.87;68.35;102132.98;135083;1254;107527;-79
2023/02/12 12:20:43;;;;;;;13.10;8.70;;;;;;;5.01;67.16;102125.98;135062;1254;107587;-78
2023/02/12 12:23:55;;;;;;;13.20;7.50;;;;;;;4.82;66.55;102126.30;135050;1254;107441;-78
2023/02/12 12:27:23;;;;;;;8.10;5.40;;;;;;;4.74;67.08;102135.34;135073;1254;107409;-78
2023/02/12 12:30:40;;;;;;;10.10;7.30;;;;;;;4.74;67.82;102138.67;135113;1254;107545;-79
2023/02/12 12:33:51;;;;;;;8.10;6.10;;;;;;;4.82;67.88;102128.63;135049;1254;108681;-79
2023/02/12 12:37:24;;;;;;;14.40;8.20;;;;;;;4.91;67.52;102125.57;135090;1254;107378;-78
2023/02/12 12:40:50;;;;;;;11.50;5.90;;;;;;;5.00;67.80;102115.83;135095;1254;107546;-78
2023/02/12 12:44:14;;;;;;;8.70;6.40;;;;;;;5.11;67.18;102115.30;135058;1254;107657;-78
2023/02/12 12:47:28;;;;;;;7.90;5.20;;;;;;;5.16;67.27;102103.62;135078;1254;107980;-79
2023/02/12 12:50:58;;;;;;;10.70;6.40;;;;;;;5.25;66.73;102102.65;135059;1254;107545;-79
2023/02/12 12:54:18;;;;;;;8.10;5.50;;;;;;;5.33;66.45;102104.71;135061;1254;107595;-78
2023/02/12 12:57:36;;;;;;;10.10;7.40;;;;;;;5.36;66.34;102099.64;135067;1254;107530;-79
2023/02/12 13:01:00;;;;;;;7.30;5.30;;;;;;;5.29;64.97;102096.09;135035;1254;107503;-79
2023/02/12 13:04:36;;;;;;;10.00;6.80;;;;;;;5.30;66.24;102095.02;135077;1254;107533;-79
2023/02/12 13:07:54;;;;;;;10.30;7.10;;;;;;;5.32;66.66;102095.79;135106;1254;106710;-79
2023/02/12 13:11:11;;;;;;;8.50;5.90;;;;;;;5.34;65.74;102104.84;135072;1256;107537;-79
2023/02/12 13:14:39;;;;;;;9.20;6.70;;;;;;;5.32;66.34;102117.11;135029;1255;109994;-78
2023/02/12 13:17:50;;;;;;;9.50;5.50;;;;;;;5.27;66.17;102109.95;135066;1254;108662;-78
2023/02/12 13:21:04;;;;;;;9.20;6.10;;;;;;;5.22;66.10;102110.89;135105;1254;105566;-78
2023/02/12 13:24:23;;;;;;;10.00;7.10;;;;;;;5.19;66.44;102109.64;135026;1254;107507;-79
2023/02/12 13:27:34;;;;;;;10.50;6.90;;;;;;;5.17;66.24;102111.84;134980;1254;107216;-79
2023/02/12 13:30:46;;;;;;;9.90;7.20;;;;;;;5.14;65.88;102110.77;135051;1254;107543;-78
2023/02/12 13:33:55;;;;;;;11.50;7.50;;;;;;;4.99;64.42;102113.56;135012;1254;107433;-79
2023/02/12 13:37:04;;;;;;;11.30;8.00;;;;;;;4.78;64.73;102118.38;135026;1254;107499;-78
2023/02/12 13:40:17;;;;;;;11.90;8.30;;;;;;;4.70;65.83;102121.22;135034;1254;107572;-78
2023/02/12 13:43:36;;;;;;;11.00;7.90;;;;;;;4.76;66.60;102115.30;135033;1255;107646;-79
2023/02/12 13:46:56;;;;;;;9.90;7.00;;;;;;;4.84;66.20;102109.15;135046;1255;108491;-78
2023/02/12 13:50:08;;;;;;;10.20;7.30;;;;;;;4.89;66.46;102100.27;135063;1254;107430;-78
2023/02/12 13:53:24;;;;;;;10.40;7.10;;;;;;;4.93;66.06;102101.83;135045;1254;108697;-78
2023/02/12 13:56:41;;;;;;;10.90;7.10;;;;;;;4.92;66.42;102089.91;135048;1256;107676;-78
2023/02/12 13:59:48;;;;;;;9.90;6.40;;;;;;;4.95;65.91;102088.02;135063;1254;106151;-78
2023/02/12 14:02:54;;;;;;;11.60;7.00;;;;;;;4.97;66.47;102091.42;135071;1254;108694;-79
2023/02/12 14:06:19;;;;;;;11.10;6.40;;;;;;;5.03;66.29;102092.40;135046;1256;108792;-79
2023/02/12 14:09:31;;;;;;;8.40;5.40;;;;;;;5.01;65.59;102093.54;135049;1254;107645;-79
2023/02/12 14:12:41;;;;;;;9.70;6.10;;;;;;;4.97;65.78;102099.92;135069;1254;107375;-78
2023/02/12 14:15:50;;;;;;;8.50;5.50;;;;;;;4.93;65.77;102100.45;135044;1254;107694;-78
2023/02/12 14:19:29;;;;;;;9.90;6.10;;;;;;;4.90;65.77;102101.30;135046;1254;107520;-78
2023/02/12 14:23:00;;;;;;;8.10;5.60;;;;;;;4.90;66.32;102110.98;134995;1254;107539;-78
2023/02/12 14:26:11;;;;;;;8.40;5.70;;;;;;;4.91;66.11;102107.05;135048;1256;107444;-78
2023/02/12 14:29:20;;;;;;;9.90;6.70;;;;;;;4.92;66.11;102102.06;135044;1254;107466;-78
2023/02/12 14:33:09;;;;;;;54.90;25.60;;;;;;;4.91;66.06;102098.41;135072;1254;107385;-79